Aérodrome :
LOGIN :

S'inscrire | Disclaimer

   EN    FR    IT 

 










Légende :    VFR   VFR Marginal   IFR   IFR Intensif   IFR Très Intensif
Visi : 
Plafond : 
>= 8 km
>= 3000ft
5 à 8 km
1000 à 3000 ft
1500m à 5 km
500 à 1000 ft
800 à 1500m
200 à 500 ft
< 800m
< 200 ft
Symboles :   Orages  Brouillard  Fortes neiges  Fortes précipitations  Vent > 20 kt
SIGMETs :   Divers  Orages  Givrage  Turbulence  Onde Orograph.  Cendres Volcan.







- Altitude de l'aérodrome : 622 ft
- Code IATA : BRS
- Voir les cartes d'approche


EGGD - Bristol Int.

DERNIER METAR :
  • 280020Z AUTO 29006KT 9999 OVC026 07/05 Q1018

METARs EXPIRÉS :
  • 272350Z AUTO 30007KT 9999 BKN028 OVC044 07/05 Q1018
  • 272320Z AUTO 29006KT 9999 FEW020 BKN031 OVC042 07/05 Q1018
  • 272250Z AUTO 29007KT 9999 OVC041 07/05 Q1018
  • 272220Z AUTO 28008KT 9999 BKN041 07/05 Q1018
  • 272150Z AUTO 28009KT 9999 BKN040 OVC047 07/05 Q1018

TAF TAF EGGD
Valide du 28 à 00h jusqu'au 29 à 00h UTC


272254Z 2800/2824 27007KT 9999 SCT040
PROB30
TEMPO 2800/2816 7000 -SHRA BKN014
ATIS : +44 1275 473 666
Pas de NOTAMs connus pour ce terrain.



MET'MAP, la Météo Aéronautique d'un coup d'oeil ! - Copyright ORBIFLY Décembre 2007 - Disclaimer

ORBIFLY MET'MAP TEAM :

Programmation & Développement : Alexandra Zaïnal
Conception & Développement : Baudouin d'Aumeries
Co-Programmation & Développement : Marc-Olivier Méhu
Soutien technique & logistique : Manuel Goepfert

Contact : metmap@orbifly.com




SOURCES & CREDITS :

   NOAA